sensor_id;sensor_type;location;lat;lon;timestamp;temperature;humidity
22071;DHT22;11200;51.488;6.668;2023-10-31T00:01:29;13.20;99.90
22071;DHT22;11200;51.488;6.668;2023-10-31T00:03:54;13.10;99.90
22071;DHT22;11200;51.488;6.668;2023-10-31T00:06:20;13.10;99.90
22071;DHT22;11200;51.488;6.668;2023-10-31T00:08:46;13.10;99.90
22071;DHT22;11200;51.488;6.668;2023-10-31T00:11:12;13.00;99.90
22071;DHT22;11200;51.488;6.668;2023-10-31T00:13:37;13.00;99.90
22071;DHT22;11200;51.488;6.668;2023-10-31T00:16:03;13.00;99.90
22071;DHT22;11200;51.488;6.668;2023-10-31T00:18:29;12.90;99.90
22071;DHT22;11200;51.488;6.668;2023-10-31T00:20:54;12.90;99.90
22071;DHT22;11200;51.488;6.668;2023-10-31T00:23:22;12.80;99.90
22071;DHT22;11200;51.488;6.668;2023-10-31T00:25:48;12.80;99.90
22071;DHT22;11200;51.488;6.668;2023-10-31T00:28:13;12.80;99.90
22071;DHT22;11200;51.488;6.668;2023-10-31T00:30:39;12.70;99.90
22071;DHT22;11200;51.488;6.668;2023-10-31T00:33:04;12.70;99.90
22071;DHT22;11200;51.488;6.668;2023-10-31T00:35:30;12.70;99.90
22071;DHT22;11200;51.488;6.668;2023-10-31T00:37:56;12.60;99.90
22071;DHT22;11200;51.488;6.668;2023-10-31T00:40:22;12.60;99.90
22071;DHT22;11200;51.488;6.668;2023-10-31T00:42:47;12.60;99.90
22071;DHT22;11200;51.488;6.668;2023-10-31T00:45:13;12.60;99.90
22071;DHT22;11200;51.488;6.668;2023-10-31T00:47:39;12.50;99.90
22071;DHT22;11200;51.488;6.668;2023-10-31T00:50:04;12.40;99.90
22071;DHT22;11200;51.488;6.668;2023-10-31T00:52:30;12.40;99.90
22071;DHT22;11200;51.488;6.668;2023-10-31T00:54:56;12.40;99.90
22071;DHT22;11200;51.488;6.668;2023-10-31T00:57:21;12.30;99.90
22071;DHT22;11200;51.488;6.668;2023-10-31T00:59:47;12.30;99.90
22071;DHT22;11200;51.488;6.668;2023-10-31T01:02:13;12.30;99.90
22071;DHT22;11200;51.488;6.668;2023-10-31T01:04:38;12.20;99.90
22071;DHT22;11200;51.488;6.668;2023-10-31T01:07:04;12.20;99.90
22071;DHT22;11200;51.488;6.668;2023-10-31T01:09:30;12.20;99.90
22071;DHT22;11200;51.488;6.668;2023-10-31T01:11:55;12.20;99.90
22071;DHT22;11200;51.488;6.668;2023-10-31T01:14:21;12.20;99.90
22071;DHT22;11200;51.488;6.668;2023-10-31T01:16:46;12.10;99.90
22071;DHT22;11200;51.488;6.668;2023-10-31T01:19:12;12.10;99.90
22071;DHT22;11200;51.488;6.668;2023-10-31T01:21:38;12.10;99.90
22071;DHT22;11200;51.488;6.668;2023-10-31T01:24:03;12.00;99.90
22071;DHT22;11200;51.488;6.668;2023-10-31T01:26:29;12.00;99.90
22071;DHT22;11200;51.488;6.668;2023-10-31T01:28:55;12.00;99.90
22071;DHT22;11200;51.488;6.668;2023-10-31T01:31:21;12.00;99.90
22071;DHT22;11200;51.488;6.668;2023-10-31T01:33:47;12.00;99.90
22071;DHT22;11200;51.488;6.668;2023-10-31T01:36:12;11.90;99.90
22071;DHT22;11200;51.488;6.668;2023-10-31T01:38:39;11.90;99.90
22071;DHT22;11200;51.488;6.668;2023-10-31T01:41:05;11.90;99.90
22071;DHT22;11200;51.488;6.668;2023-10-31T01:43:35;11.90;99.90
22071;DHT22;11200;51.488;6.668;2023-10-31T01:46:01;11.90;99.90
22071;DHT22;11200;51.488;6.668;2023-10-31T01:48:32;11.80;99.90
22071;DHT22;11200;51.488;6.668;2023-10-31T01:50:59;11.80;99.90
22071;DHT22;11200;51.488;6.668;2023-10-31T01:53:25;12.00;99.90
22071;DHT22;11200;51.488;6.668;2023-10-31T01:55:55;11.80;99.90
22071;DHT22;11200;51.488;6.668;2023-10-31T01:58:25;11.80;99.90
22071;DHT22;11200;51.488;6.668;2023-10-31T02:00:51;11.80;99.90
22071;DHT22;11200;51.488;6.668;2023-10-31T02:03:17;11.70;99.90
22071;DHT22;11200;51.488;6.668;2023-10-31T02:05:43;11.70;99.90
22071;DHT22;11200;51.488;6.668;2023-10-31T02:08:10;11.70;99.90
22071;DHT22;11200;51.488;6.668;2023-10-31T02:10:35;11.70;99.90
22071;DHT22;11200;51.488;6.668;2023-10-31T02:13:14;11.70;99.90
22071;DHT22;11200;51.488;6.668;2023-10-31T02:15:40;11.70;99.90
22071;DHT22;11200;51.488;6.668;2023-10-31T02:18:05;11.60;99.90
22071;DHT22;11200;51.488;6.668;2023-10-31T02:20:31;11.60;99.90
22071;DHT22;11200;51.488;6.668;2023-10-31T02:22:57;11.60;99.90
22071;DHT22;11200;51.488;6.668;2023-10-31T02:25:22;11.60;99.90
22071;DHT22;11200;51.488;6.668;2023-10-31T02:27:48;11.70;99.90
22071;DHT22;11200;51.488;6.668;2023-10-31T02:30:14;11.60;99.90
22071;DHT22;11200;51.488;6.668;2023-10-31T02:32:40;11.60;99.90
22071;DHT22;11200;51.488;6.668;2023-10-31T02:35:07;11.60;99.90
22071;DHT22;11200;51.488;6.668;2023-10-31T02:37:32;11.60;99.90
22071;DHT22;11200;51.488;6.668;2023-10-31T02:39:58;11.60;99.90
22071;DHT22;11200;51.488;6.668;2023-10-31T02:42:25;11.50;99.90
22071;DHT22;11200;51.488;6.668;2023-10-31T02:44:50;11.60;99.90
22071;DHT22;11200;51.488;6.668;2023-10-31T02:47:16;11.50;99.90
22071;DHT22;11200;51.488;6.668;2023-10-31T02:49:42;11.50;99.90
22071;DHT22;11200;51.488;6.668;2023-10-31T02:52:07;11.50;99.90
22071;DHT22;11200;51.488;6.668;2023-10-31T02:54:33;11.50;99.90
22071;DHT22;11200;51.488;6.668;2023-10-31T02:56:58;11.50;99.90
22071;DHT22;11200;51.488;6.668;2023-10-31T02:59:24;11.50;99.90
22071;DHT22;11200;51.488;6.668;2023-10-31T03:01:50;11.50;99.90
22071;DHT22;11200;51.488;6.668;2023-10-31T03:04:15;11.40;99.90
22071;DHT22;11200;51.488;6.668;2023-10-31T03:06:41;11.50;99.90
22071;DHT22;11200;51.488;6.668;2023-10-31T03:09:07;11.50;99.90
22071;DHT22;11200;51.488;6.668;2023-10-31T03:11:33;11.50;99.90
22071;DHT22;11200;51.488;6.668;2023-10-31T03:13:58;11.50;99.90
22071;DHT22;11200;51.488;6.668;2023-10-31T03:16:24;11.50;99.90
22071;DHT22;11200;51.488;6.668;2023-10-31T03:18:50;11.50;99.90
22071;DHT22;11200;51.488;6.668;2023-10-31T03:21:16;11.40;99.90
22071;DHT22;11200;51.488;6.668;2023-10-31T03:23:47;11.40;99.90
22071;DHT22;11200;51.488;6.668;2023-10-31T03:26:13;11.40;99.90
22071;DHT22;11200;51.488;6.668;2023-10-31T03:28:38;11.40;99.90
22071;DHT22;11200;51.488;6.668;2023-10-31T03:31:04;11.40;99.90
22071;DHT22;11200;51.488;6.668;2023-10-31T03:33:30;11.40;99.90
22071;DHT22;11200;51.488;6.668;2023-10-31T03:35:55;11.40;99.90
22071;DHT22;11200;51.488;6.668;2023-10-31T03:38:21;11.40;99.90
22071;DHT22;11200;51.488;6.668;2023-10-31T03:40:46;11.40;99.90
22071;DHT22;11200;51.488;6.668;2023-10-31T03:43:12;11.40;99.90
22071;DHT22;11200;51.488;6.668;2023-10-31T03:45:37;11.40;99.90
22071;DHT22;11200;51.488;6.668;2023-10-31T03:48:03;11.40;99.90
22071;DHT22;11200;51.488;6.668;2023-10-31T03:50:29;11.40;99.90
22071;DHT22;11200;51.488;6.668;2023-10-31T03:52:54;11.40;99.90
22071;DHT22;11200;51.488;6.668;2023-10-31T03:55:20;11.40;99.90
22071;DHT22;11200;51.488;6.668;2023-10-31T03:57:46;11.40;99.90
22071;DHT22;11200;51.488;6.668;2023-10-31T04:00:12;11.40;99.90
22071;DHT22;11200;51.488;6.668;2023-10-31T04:02:39;11.40;99.90
22071;DHT22;11200;51.488;6.668;2023-10-31T04:05:06;11.30;99.90
22071;DHT22;11200;51.488;6.668;2023-10-31T04:07:32;11.40;99.90
22071;DHT22;11200;51.488;6.668;2023-10-31T04:09:58;11.30;99.90
22071;DHT22;11200;51.488;6.668;2023-10-31T04:12:23;11.30;99.90
22071;DHT22;11200;51.488;6.668;2023-10-31T04:14:49;11.40;99.90
22071;DHT22;11200;51.488;6.668;2023-10-31T04:17:14;11.40;99.90
22071;DHT22;11200;51.488;6.668;2023-10-31T04:19:40;11.40;99.90
22071;DHT22;11200;51.488;6.668;2023-10-31T04:22:06;11.30;99.90
22071;DHT22;11200;51.488;6.668;2023-10-31T04:24:31;11.30;99.90
22071;DHT22;11200;51.488;6.668;2023-10-31T04:26:57;11.30;99.90
22071;DHT22;11200;51.488;6.668;2023-10-31T04:29:23;11.30;99.90
22071;DHT22;11200;51.488;6.668;2023-10-31T04:31:48;11.30;99.90
22071;DHT22;11200;51.488;6.668;2023-10-31T04:34:14;11.30;99.90
22071;DHT22;11200;51.488;6.668;2023-10-31T04:36:40;11.30;99.90
22071;DHT22;11200;51.488;6.668;2023-10-31T04:39:05;11.30;99.90
22071;DHT22;11200;51.488;6.668;2023-10-31T04:41:31;11.30;99.90
22071;DHT22;11200;51.488;6.668;2023-10-31T04:43:57;11.30;99.90
22071;DHT22;11200;51.488;6.668;2023-10-31T04:46:24;11.30;99.90
22071;DHT22;11200;51.488;6.668;2023-10-31T04:48:49;11.30;99.90
22071;DHT22;11200;51.488;6.668;2023-10-31T04:51:15;11.40;99.90
22071;DHT22;11200;51.488;6.668;2023-10-31T04:53:41;11.30;99.90
22071;DHT22;11200;51.488;6.668;2023-10-31T04:56:12;11.80;99.90
22071;DHT22;11200;51.488;6.668;2023-10-31T04:58:39;11.30;99.90
22071;DHT22;11200;51.488;6.668;2023-10-31T05:01:09;11.30;99.90
22071;DHT22;11200;51.488;6.668;2023-10-31T05:03:43;11.30;99.90
22071;DHT22;11200;51.488;6.668;2023-10-31T05:06:09;11.30;99.90
22071;DHT22;11200;51.488;6.668;2023-10-31T05:08:38;11.30;99.90
22071;DHT22;11200;51.488;6.668;2023-10-31T05:11:05;11.20;99.90
22071;DHT22;11200;51.488;6.668;2023-10-31T05:13:31;11.30;99.90
22071;DHT22;11200;51.488;6.668;2023-10-31T05:16:00;11.60;99.90
22071;DHT22;11200;51.488;6.668;2023-10-31T05:18:26;11.30;99.90
22071;DHT22;11200;51.488;6.668;2023-10-31T05:20:59;11.70;99.90
22071;DHT22;11200;51.488;6.668;2023-10-31T05:23:24;11.30;99.90
22071;DHT22;11200;51.488;6.668;2023-10-31T05:25:50;11.40;99.90
22071;DHT22;11200;51.488;6.668;2023-10-31T05:28:18;11.20;99.90
22071;DHT22;11200;51.488;6.668;2023-10-31T05:30:44;11.20;99.90
22071;DHT22;11200;51.488;6.668;2023-10-31T05:33:17;11.70;99.90
22071;DHT22;11200;51.488;6.668;2023-10-31T05:35:43;11.10;99.90
22071;DHT22;11200;51.488;6.668;2023-10-31T05:38:09;11.30;99.90
22071;DHT22;11200;51.488;6.668;2023-10-31T05:40:34;11.20;99.90
22071;DHT22;11200;51.488;6.668;2023-10-31T05:43:03;11.20;99.90
22071;DHT22;11200;51.488;6.668;2023-10-31T05:45:29;11.20;99.90
22071;DHT22;11200;51.488;6.668;2023-10-31T05:47:55;11.20;99.90
22071;DHT22;11200;51.488;6.668;2023-10-31T05:50:21;11.20;99.90
22071;DHT22;11200;51.488;6.668;2023-10-31T05:52:46;11.10;99.90
22071;DHT22;11200;51.488;6.668;2023-10-31T05:55:13;11.20;99.90
22071;DHT22;11200;51.488;6.668;2023-10-31T05:57:42;11.20;99.90
22071;DHT22;11200;51.488;6.668;2023-10-31T06:00:07;11.20;99.90
22071;DHT22;11200;51.488;6.668;2023-10-31T06:02:34;11.20;99.90
22071;DHT22;11200;51.488;6.668;2023-10-31T06:04:59;11.20;99.90
22071;DHT22;11200;51.488;6.668;2023-10-31T06:07:25;11.20;99.90
22071;DHT22;11200;51.488;6.668;2023-10-31T06:09:51;11.30;99.90
22071;DHT22;11200;51.488;6.668;2023-10-31T06:12:16;11.20;99.90
22071;DHT22;11200;51.488;6.668;2023-10-31T06:14:42;11.20;99.90
22071;DHT22;11200;51.488;6.668;2023-10-31T06:17:08;11.20;99.90
22071;DHT22;11200;51.488;6.668;2023-10-31T06:19:38;11.20;99.90
22071;DHT22;11200;51.488;6.668;2023-10-31T06:22:04;11.10;99.90
22071;DHT22;11200;51.488;6.668;2023-10-31T06:24:29;11.10;99.90
22071;DHT22;11200;51.488;6.668;2023-10-31T06:26:55;11.10;99.90
22071;DHT22;11200;51.488;6.668;2023-10-31T06:29:21;11.20;99.90
22071;DHT22;11200;51.488;6.668;2023-10-31T06:31:46;11.10;99.90
22071;DHT22;11200;51.488;6.668;2023-10-31T06:34:12;11.20;99.90
22071;DHT22;11200;51.488;6.668;2023-10-31T06:36:38;11.10;99.90
22071;DHT22;11200;51.488;6.668;2023-10-31T06:39:07;11.20;99.90
22071;DHT22;11200;51.488;6.668;2023-10-31T06:41:33;11.10;99.90
22071;DHT22;11200;51.488;6.668;2023-10-31T06:43:58;11.20;99.90
22071;DHT22;11200;51.488;6.668;2023-10-31T06:46:24;11.10;99.90
22071;DHT22;11200;51.488;6.668;2023-10-31T06:48:49;11.40;99.90
22071;DHT22;11200;51.488;6.668;2023-10-31T06:51:15;11.10;99.90
22071;DHT22;11200;51.488;6.668;2023-10-31T06:53:41;11.10;99.90
22071;DHT22;11200;51.488;6.668;2023-10-31T06:56:06;11.10;99.90
22071;DHT22;11200;51.488;6.668;2023-10-31T06:58:32;11.10;99.90
22071;DHT22;11200;51.488;6.668;2023-10-31T07:00:58;11.70;99.90
22071;DHT22;11200;51.488;6.668;2023-10-31T07:03:25;11.20;99.90
22071;DHT22;11200;51.488;6.668;2023-10-31T07:05:50;11.30;99.90
22071;DHT22;11200;51.488;6.668;2023-10-31T07:08:16;11.10;99.90
22071;DHT22;11200;51.488;6.668;2023-10-31T07:10:42;11.10;99.90
22071;DHT22;11200;51.488;6.668;2023-10-31T07:13:07;11.20;99.90
22071;DHT22;11200;51.488;6.668;2023-10-31T07:15:33;11.10;99.90
22071;DHT22;11200;51.488;6.668;2023-10-31T07:18:07;11.10;99.90
22071;DHT22;11200;51.488;6.668;2023-10-31T07:20:35;11.10;99.90
22071;DHT22;11200;51.488;6.668;2023-10-31T07:23:04;11.10;99.90
22071;DHT22;11200;51.488;6.668;2023-10-31T07:25:30;11.10;99.90
22071;DHT22;11200;51.488;6.668;2023-10-31T07:27:55;11.20;99.90
22071;DHT22;11200;51.488;6.668;2023-10-31T07:30:21;11.20;99.90
22071;DHT22;11200;51.488;6.668;2023-10-31T07:32:46;11.10;99.90
22071;DHT22;11200;51.488;6.668;2023-10-31T07:35:12;11.10;99.90
22071;DHT22;11200;51.488;6.668;2023-10-31T07:37:37;11.10;99.90
22071;DHT22;11200;51.488;6.668;2023-10-31T07:40:03;11.10;99.90
22071;DHT22;11200;51.488;6.668;2023-10-31T07:42:32;11.10;99.90
22071;DHT22;11200;51.488;6.668;2023-10-31T07:44:58;11.20;99.90
22071;DHT22;11200;51.488;6.668;2023-10-31T07:47:23;11.20;99.90
22071;DHT22;11200;51.488;6.668;2023-10-31T07:49:50;11.20;99.90
22071;DHT22;11200;51.488;6.668;2023-10-31T07:52:16;11.20;99.90
22071;DHT22;11200;51.488;6.668;2023-10-31T07:54:41;11.30;99.90
22071;DHT22;11200;51.488;6.668;2023-10-31T07:57:07;11.80;99.90
22071;DHT22;11200;51.488;6.668;2023-10-31T07:59:36;11.20;99.90
22071;DHT22;11200;51.488;6.668;2023-10-31T08:02:02;11.20;99.90
22071;DHT22;11200;51.488;6.668;2023-10-31T08:04:28;11.20;99.90
22071;DHT22;11200;51.488;6.668;2023-10-31T08:06:55;11.30;99.90
22071;DHT22;11200;51.488;6.668;2023-10-31T08:09:21;11.20;99.90
22071;DHT22;11200;51.488;6.668;2023-10-31T08:11:46;11.20;99.90
22071;DHT22;11200;51.488;6.668;2023-10-31T08:14:12;11.30;99.90
22071;DHT22;11200;51.488;6.668;2023-10-31T08:16:37;11.40;99.90
22071;DHT22;11200;51.488;6.668;2023-10-31T08:19:03;11.50;99.90
22071;DHT22;11200;51.488;6.668;2023-10-31T08:21:29;11.30;99.90
22071;DHT22;11200;51.488;6.668;2023-10-31T08:24:03;11.30;99.90
22071;DHT22;11200;51.488;6.668;2023-10-31T08:26:30;11.50;99.90
22071;DHT22;11200;51.488;6.668;2023-10-31T08:28:56;11.30;99.90
22071;DHT22;11200;51.488;6.668;2023-10-31T08:31:22;11.40;99.90
22071;DHT22;11200;51.488;6.668;2023-10-31T08:33:47;11.40;99.90
22071;DHT22;11200;51.488;6.668;2023-10-31T08:36:13;11.50;99.90
22071;DHT22;11200;51.488;6.668;2023-10-31T08:38:38;11.50;99.90
22071;DHT22;11200;51.488;6.668;2023-10-31T08:41:05;11.50;99.90
22071;DHT22;11200;51.488;6.668;2023-10-31T08:43:30;11.50;99.90
22071;DHT22;11200;51.488;6.668;2023-10-31T08:45:56;11.60;99.90
22071;DHT22;11200;51.488;6.668;2023-10-31T08:48:22;11.60;99.90
22071;DHT22;11200;51.488;6.668;2023-10-31T08:50:47;12.50;99.90
22071;DHT22;11200;51.488;6.668;2023-10-31T08:53:13;11.70;99.90
22071;DHT22;11200;51.488;6.668;2023-10-31T08:55:39;11.70;99.90
22071;DHT22;11200;51.488;6.668;2023-10-31T08:58:05;11.80;99.90
22071;DHT22;11200;51.488;6.668;2023-10-31T09:00:32;11.80;99.90
22071;DHT22;11200;51.488;6.668;2023-10-31T09:02:57;11.80;99.90
22071;DHT22;11200;51.488;6.668;2023-10-31T09:05:23;11.80;99.90
22071;DHT22;11200;51.488;6.668;2023-10-31T09:07:48;12.20;99.90
22071;DHT22;11200;51.488;6.668;2023-10-31T09:10:14;11.90;99.90
22071;DHT22;11200;51.488;6.668;2023-10-31T09:12:39;11.80;99.90
22071;DHT22;11200;51.488;6.668;2023-10-31T09:15:05;12.20;99.90
22071;DHT22;11200;51.488;6.668;2023-10-31T09:17:31;11.90;99.90
22071;DHT22;11200;51.488;6.668;2023-10-31T09:19:57;11.90;99.90
22071;DHT22;11200;51.488;6.668;2023-10-31T09:22:22;11.90;99.90
22071;DHT22;11200;51.488;6.668;2023-10-31T09:24:48;12.00;99.90
22071;DHT22;11200;51.488;6.668;2023-10-31T09:27:13;12.10;99.90
22071;DHT22;11200;51.488;6.668;2023-10-31T09:29:39;12.10;99.90
22071;DHT22;11200;51.488;6.668;2023-10-31T09:32:06;12.00;99.90
22071;DHT22;11200;51.488;6.668;2023-10-31T09:34:32;12.10;99.90
22071;DHT22;11200;51.488;6.668;2023-10-31T09:36:58;12.10;99.90
22071;DHT22;11200;51.488;6.668;2023-10-31T09:39:24;12.10;99.90
22071;DHT22;11200;51.488;6.668;2023-10-31T09:41:49;12.10;99.90
22071;DHT22;11200;51.488;6.668;2023-10-31T09:44:15;12.10;99.90
22071;DHT22;11200;51.488;6.668;2023-10-31T09:46:41;12.20;99.90
22071;DHT22;11200;51.488;6.668;2023-10-31T09:49:07;12.20;99.90
22071;DHT22;11200;51.488;6.668;2023-10-31T09:51:33;12.20;99.90
22071;DHT22;11200;51.488;6.668;2023-10-31T09:54:02;12.20;99.90
22071;DHT22;11200;51.488;6.668;2023-10-31T09:56:29;12.30;99.90
22071;DHT22;11200;51.488;6.668;2023-10-31T09:59:00;12.30;99.90
22071;DHT22;11200;51.488;6.668;2023-10-31T10:01:26;12.40;99.90
22071;DHT22;11200;51.488;6.668;2023-10-31T10:03:52;12.30;99.90
22071;DHT22;11200;51.488;6.668;2023-10-31T10:06:17;12.40;99.90
22071;DHT22;11200;51.488;6.668;2023-10-31T10:08:46;12.50;99.90
22071;DHT22;11200;51.488;6.668;2023-10-31T10:11:12;12.40;99.90
22071;DHT22;11200;51.488;6.668;2023-10-31T10:13:37;12.50;99.90
22071;DHT22;11200;51.488;6.668;2023-10-31T10:16:03;12.30;99.90
22071;DHT22;11200;51.488;6.668;2023-10-31T10:18:34;12.40;99.90
22071;DHT22;11200;51.488;6.668;2023-10-31T10:21:05;12.30;99.90
22071;DHT22;11200;51.488;6.668;2023-10-31T10:23:32;12.40;99.90
22071;DHT22;11200;51.488;6.668;2023-10-31T10:25:59;12.40;99.90
22071;DHT22;11200;51.488;6.668;2023-10-31T10:28:26;12.30;99.90
22071;DHT22;11200;51.488;6.668;2023-10-31T10:30:52;12.60;99.90
22071;DHT22;11200;51.488;6.668;2023-10-31T10:33:20;12.40;99.90
22071;DHT22;11200;51.488;6.668;2023-10-31T10:35:46;12.40;99.90
22071;DHT22;11200;51.488;6.668;2023-10-31T10:38:12;12.40;99.90
22071;DHT22;11200;51.488;6.668;2023-10-31T10:40:40;12.40;99.90
22071;DHT22;11200;51.488;6.668;2023-10-31T10:43:20;12.30;99.90
22071;DHT22;11200;51.488;6.668;2023-10-31T10:45:46;12.40;99.90
22071;DHT22;11200;51.488;6.668;2023-10-31T10:48:15;12.40;99.90
22071;DHT22;11200;51.488;6.668;2023-10-31T10:50:43;12.50;99.90
22071;DHT22;11200;51.488;6.668;2023-10-31T10:53:21;12.50;99.90
22071;DHT22;11200;51.488;6.668;2023-10-31T10:55:51;12.60;99.90
22071;DHT22;11200;51.488;6.668;2023-10-31T10:58:27;12.50;99.90
22071;DHT22;11200;51.488;6.668;2023-10-31T11:00:56;12.50;99.90
22071;DHT22;11200;51.488;6.668;2023-10-31T11:03:24;12.50;99.90
22071;DHT22;11200;51.488;6.668;2023-10-31T11:05:51;12.50;99.90
22071;DHT22;11200;51.488;6.668;2023-10-31T11:08:19;12.50;99.90
22071;DHT22;11200;51.488;6.668;2023-10-31T11:10:46;12.70;99.90
22071;DHT22;11200;51.488;6.668;2023-10-31T11:13:12;12.60;99.90
22071;DHT22;11200;51.488;6.668;2023-10-31T11:15:38;12.70;99.90
22071;DHT22;11200;51.488;6.668;2023-10-31T11:18:05;12.60;99.90
22071;DHT22;11200;51.488;6.668;2023-10-31T11:20:31;12.60;99.90
22071;DHT22;11200;51.488;6.668;2023-10-31T11:22:57;12.70;99.90
22071;DHT22;11200;51.488;6.668;2023-10-31T11:25:23;12.70;99.90
22071;DHT22;11200;51.488;6.668;2023-10-31T11:27:53;12.70;99.90
22071;DHT22;11200;51.488;6.668;2023-10-31T11:32:57;12.70;99.90
22071;DHT22;11200;51.488;6.668;2023-10-31T11:35:23;12.80;99.90
22071;DHT22;11200;51.488;6.668;2023-10-31T11:37:50;12.80;99.90
22071;DHT22;11200;51.488;6.668;2023-10-31T11:40:26;13.00;99.90
22071;DHT22;11200;51.488;6.668;2023-10-31T11:42:53;12.90;99.90
22071;DHT22;11200;51.488;6.668;2023-10-31T11:45:32;12.90;99.90
22071;DHT22;11200;51.488;6.668;2023-10-31T11:47:58;12.90;99.90
22071;DHT22;11200;51.488;6.668;2023-10-31T11:50:24;12.90;99.90
22071;DHT22;11200;51.488;6.668;2023-10-31T11:53:04;13.00;99.90
22071;DHT22;11200;51.488;6.668;2023-10-31T11:55:31;13.10;99.90
22071;DHT22;11200;51.488;6.668;2023-10-31T11:58:00;13.10;99.90
22071;DHT22;11200;51.488;6.668;2023-10-31T12:00:36;13.00;99.90
22071;DHT22;11200;51.488;6.668;2023-10-31T12:03:02;13.10;99.90
22071;DHT22;11200;51.488;6.668;2023-10-31T12:05:28;13.10;99.90
22071;DHT22;11200;51.488;6.668;2023-10-31T12:07:54;13.10;99.90
22071;DHT22;11200;51.488;6.668;2023-10-31T12:10:25;13.20;99.90
22071;DHT22;11200;51.488;6.668;2023-10-31T12:12:52;13.30;99.90
22071;DHT22;11200;51.488;6.668;2023-10-31T12:15:18;13.20;99.90
22071;DHT22;11200;51.488;6.668;2023-10-31T12:17:44;13.20;99.90
22071;DHT22;11200;51.488;6.668;2023-10-31T12:20:09;13.20;99.90
22071;DHT22;11200;51.488;6.668;2023-10-31T12:22:36;13.20;99.90
22071;DHT22;11200;51.488;6.668;2023-10-31T12:25:06;13.20;99.90
22071;DHT22;11200;51.488;6.668;2023-10-31T12:27:50;13.30;99.90
22071;DHT22;11200;51.488;6.668;2023-10-31T12:30:21;13.20;99.90
22071;DHT22;11200;51.488;6.668;2023-10-31T12:32:54;13.30;99.90
22071;DHT22;11200;51.488;6.668;2023-10-31T12:35:21;13.30;99.90
22071;DHT22;11200;51.488;6.668;2023-10-31T12:37:49;13.30;99.90
22071;DHT22;11200;51.488;6.668;2023-10-31T12:40:17;13.30;99.90
22071;DHT22;11200;51.488;6.668;2023-10-31T12:42:45;13.30;99.90
22071;DHT22;11200;51.488;6.668;2023-10-31T12:45:15;13.40;99.90
22071;DHT22;11200;51.488;6.668;2023-10-31T12:47:41;13.40;99.90
22071;DHT22;11200;51.488;6.668;2023-10-31T12:52:51;13.50;99.90
22071;DHT22;11200;51.488;6.668;2023-10-31T12:55:22;13.50;99.90
22071;DHT22;11200;51.488;6.668;2023-10-31T12:57:49;13.50;99.90
22071;DHT22;11200;51.488;6.668;2023-10-31T13:00:17;13.50;99.90
22071;DHT22;11200;51.488;6.668;2023-10-31T13:02:50;13.50;99.90
22071;DHT22;11200;51.488;6.668;2023-10-31T13:05:16;13.50;99.90
22071;DHT22;11200;51.488;6.668;2023-10-31T13:07:52;13.50;99.90
22071;DHT22;11200;51.488;6.668;2023-10-31T13:10:18;13.60;99.90
22071;DHT22;11200;51.488;6.668;2023-10-31T13:12:45;13.50;99.90
22071;DHT22;11200;51.488;6.668;2023-10-31T13:15:12;13.50;99.90
22071;DHT22;11200;51.488;6.668;2023-10-31T13:17:39;13.50;99.90
22071;DHT22;11200;51.488;6.668;2023-10-31T13:20:07;13.60;99.90
22071;DHT22;11200;51.488;6.668;2023-10-31T13:22:35;13.60;99.90
22071;DHT22;11200;51.488;6.668;2023-10-31T13:25:01;13.60;99.90
22071;DHT22;11200;51.488;6.668;2023-10-31T13:27:31;13.60;99.90
22071;DHT22;11200;51.488;6.668;2023-10-31T13:29:57;13.50;99.90
22071;DHT22;11200;51.488;6.668;2023-10-31T13:32:23;13.50;99.90
22071;DHT22;11200;51.488;6.668;2023-10-31T13:34:49;13.50;99.90
22071;DHT22;11200;51.488;6.668;2023-10-31T13:37:15;13.50;99.90
22071;DHT22;11200;51.488;6.668;2023-10-31T13:39:41;13.50;99.90
22071;DHT22;11200;51.488;6.668;2023-10-31T13:42:07;13.50;99.90
22071;DHT22;11200;51.488;6.668;2023-10-31T13:44:34;13.50;99.90
22071;DHT22;11200;51.488;6.668;2023-10-31T13:46:59;13.60;99.90
22071;DHT22;11200;51.488;6.668;2023-10-31T13:49:27;13.50;99.90
22071;DHT22;11200;51.488;6.668;2023-10-31T13:51:53;13.50;99.90
22071;DHT22;11200;51.488;6.668;2023-10-31T13:54:19;13.50;99.90
22071;DHT22;11200;51.488;6.668;2023-10-31T13:56:48;13.60;99.90
22071;DHT22;11200;51.488;6.668;2023-10-31T13:59:13;13.50;99.90
22071;DHT22;11200;51.488;6.668;2023-10-31T14:01:40;13.40;99.90
22071;DHT22;11200;51.488;6.668;2023-10-31T14:04:12;13.40;99.90
22071;DHT22;11200;51.488;6.668;2023-10-31T14:06:44;13.40;99.90
22071;DHT22;11200;51.488;6.668;2023-10-31T14:09:10;13.60;99.90
22071;DHT22;11200;51.488;6.668;2023-10-31T14:11:37;13.40;99.90
22071;DHT22;11200;51.488;6.668;2023-10-31T14:14:04;13.40;99.90
22071;DHT22;11200;51.488;6.668;2023-10-31T14:16:42;13.20;99.90
22071;DHT22;11200;51.488;6.668;2023-10-31T14:19:14;14.00;99.90
22071;DHT22;11200;51.488;6.668;2023-10-31T14:21:43;13.40;99.90
22071;DHT22;11200;51.488;6.668;2023-10-31T14:24:09;13.30;99.90
22071;DHT22;11200;51.488;6.668;2023-10-31T14:26:35;13.30;99.90
22071;DHT22;11200;51.488;6.668;2023-10-31T14:29:01;13.30;99.90
22071;DHT22;11200;51.488;6.668;2023-10-31T14:31:27;13.30;99.90
22071;DHT22;11200;51.488;6.668;2023-10-31T14:33:56;13.20;99.90
22071;DHT22;11200;51.488;6.668;2023-10-31T14:36:23;13.20;99.90
22071;DHT22;11200;51.488;6.668;2023-10-31T14:38:48;13.20;99.90
22071;DHT22;11200;51.488;6.668;2023-10-31T14:41:14;13.20;99.90
22071;DHT22;11200;51.488;6.668;2023-10-31T14:43:39;13.10;99.90
22071;DHT22;11200;51.488;6.668;2023-10-31T14:46:08;13.10;99.90
22071;DHT22;11200;51.488;6.668;2023-10-31T14:48:34;13.10;99.90
22071;DHT22;11200;51.488;6.668;2023-10-31T14:51:18;13.00;99.90
22071;DHT22;11200;51.488;6.668;2023-10-31T14:56:51;14.00;99.90
22071;DHT22;11200;51.488;6.668;2023-10-31T14:59:17;12.80;99.90
22071;DHT22;11200;51.488;6.668;2023-10-31T15:01:42;12.90;99.90
22071;DHT22;11200;51.488;6.668;2023-10-31T15:04:09;12.90;99.90
22071;DHT22;11200;51.488;6.668;2023-10-31T15:06:36;12.90;99.90
22071;DHT22;11200;51.488;6.668;2023-10-31T15:09:03;12.90;99.90
22071;DHT22;11200;51.488;6.668;2023-10-31T15:11:31;12.80;99.90
22071;DHT22;11200;51.488;6.668;2023-10-31T15:13:58;12.80;99.90
22071;DHT22;11200;51.488;6.668;2023-10-31T15:16:24;12.80;99.90
22071;DHT22;11200;51.488;6.668;2023-10-31T15:18:50;12.80;99.90
22071;DHT22;11200;51.488;6.668;2023-10-31T15:21:17;12.80;99.90
22071;DHT22;11200;51.488;6.668;2023-10-31T15:23:44;12.70;99.90
22071;DHT22;11200;51.488;6.668;2023-10-31T15:26:11;12.70;99.90
22071;DHT22;11200;51.488;6.668;2023-10-31T15:28:39;13.10;99.90
22071;DHT22;11200;51.488;6.668;2023-10-31T15:31:05;12.60;99.90
22071;DHT22;11200;51.488;6.668;2023-10-31T15:33:31;12.60;99.90
22071;DHT22;11200;51.488;6.668;2023-10-31T15:35:58;12.60;99.90